sensor_id;sensor_type;location;lat;lon;timestamp;temperature;humidity
23120;DHT22;11729;50.836;4.330;2024-01-06T00:01:36;8.10;99.90
23120;DHT22;11729;50.836;4.330;2024-01-06T00:04:02;8.00;99.90
23120;DHT22;11729;50.836;4.330;2024-01-06T00:06:28;8.00;99.90
23120;DHT22;11729;50.836;4.330;2024-01-06T00:08:53;8.00;99.90
23120;DHT22;11729;50.836;4.330;2024-01-06T00:11:21;8.00;99.90
23120;DHT22;11729;50.836;4.330;2024-01-06T00:13:46;8.10;99.90
23120;DHT22;11729;50.836;4.330;2024-01-06T00:16:12;8.10;99.90
23120;DHT22;11729;50.836;4.330;2024-01-06T00:18:39;8.00;99.90
23120;DHT22;11729;50.836;4.330;2024-01-06T00:21:04;8.10;99.90
23120;DHT22;11729;50.836;4.330;2024-01-06T00:23:30;8.30;99.90
23120;DHT22;11729;50.836;4.330;2024-01-06T00:25:56;8.30;99.90
23120;DHT22;11729;50.836;4.330;2024-01-06T00:28:22;8.20;99.90
23120;DHT22;11729;50.836;4.330;2024-01-06T00:30:47;8.30;99.90
23120;DHT22;11729;50.836;4.330;2024-01-06T00:33:13;8.30;99.90
23120;DHT22;11729;50.836;4.330;2024-01-06T00:35:39;8.30;99.90
23120;DHT22;11729;50.836;4.330;2024-01-06T00:38:04;8.30;99.90
23120;DHT22;11729;50.836;4.330;2024-01-06T00:40:30;8.40;99.90
23120;DHT22;11729;50.836;4.330;2024-01-06T00:42:58;8.40;99.90
23120;DHT22;11729;50.836;4.330;2024-01-06T00:45:23;8.30;99.90
23120;DHT22;11729;50.836;4.330;2024-01-06T00:47:49;8.10;99.90
23120;DHT22;11729;50.836;4.330;2024-01-06T00:50:17;8.10;99.90
23120;DHT22;11729;50.836;4.330;2024-01-06T00:52:45;8.10;99.90
23120;DHT22;11729;50.836;4.330;2024-01-06T00:55:11;8.10;99.90
23120;DHT22;11729;50.836;4.330;2024-01-06T00:57:36;8.00;99.90
23120;DHT22;11729;50.836;4.330;2024-01-06T01:00:04;8.10;99.90
23120;DHT22;11729;50.836;4.330;2024-01-06T01:02:32;8.10;99.90
23120;DHT22;11729;50.836;4.330;2024-01-06T01:04:57;8.10;99.90
23120;DHT22;11729;50.836;4.330;2024-01-06T01:07:24;8.20;99.90
23120;DHT22;11729;50.836;4.330;2024-01-06T01:09:50;8.40;99.90
23120;DHT22;11729;50.836;4.330;2024-01-06T01:12:15;8.30;99.90
23120;DHT22;11729;50.836;4.330;2024-01-06T01:14:41;8.20;99.90
23120;DHT22;11729;50.836;4.330;2024-01-06T01:17:07;8.20;99.90
23120;DHT22;11729;50.836;4.330;2024-01-06T01:19:32;8.30;99.90
23120;DHT22;11729;50.836;4.330;2024-01-06T01:21:58;8.10;99.90
23120;DHT22;11729;50.836;4.330;2024-01-06T01:24:23;8.10;99.90
23120;DHT22;11729;50.836;4.330;2024-01-06T01:26:49;8.10;99.90
23120;DHT22;11729;50.836;4.330;2024-01-06T01:29:18;8.20;99.90
23120;DHT22;11729;50.836;4.330;2024-01-06T01:31:46;8.10;99.90
23120;DHT22;11729;50.836;4.330;2024-01-06T01:34:12;8.10;99.90
23120;DHT22;11729;50.836;4.330;2024-01-06T01:36:40;8.10;99.90
23120;DHT22;11729;50.836;4.330;2024-01-06T01:39:07;8.10;99.90
23120;DHT22;11729;50.836;4.330;2024-01-06T01:41:33;8.10;99.90
23120;DHT22;11729;50.836;4.330;2024-01-06T01:43:59;8.10;99.90
23120;DHT22;11729;50.836;4.330;2024-01-06T01:46:29;7.90;99.90
23120;DHT22;11729;50.836;4.330;2024-01-06T01:48:56;7.90;99.90
23120;DHT22;11729;50.836;4.330;2024-01-06T01:51:24;7.90;99.90
23120;DHT22;11729;50.836;4.330;2024-01-06T01:53:50;8.00;99.90
23120;DHT22;11729;50.836;4.330;2024-01-06T01:56:17;8.10;99.90
23120;DHT22;11729;50.836;4.330;2024-01-06T01:58:42;8.40;99.90
23120;DHT22;11729;50.836;4.330;2024-01-06T02:01:08;8.40;99.90
23120;DHT22;11729;50.836;4.330;2024-01-06T02:03:35;8.10;99.90
23120;DHT22;11729;50.836;4.330;2024-01-06T02:06:02;8.10;99.90
23120;DHT22;11729;50.836;4.330;2024-01-06T02:08:28;8.00;99.90
23120;DHT22;11729;50.836;4.330;2024-01-06T02:10:57;8.20;99.90
23120;DHT22;11729;50.836;4.330;2024-01-06T02:13:23;8.30;99.90
23120;DHT22;11729;50.836;4.330;2024-01-06T02:15:49;8.40;99.90
23120;DHT22;11729;50.836;4.330;2024-01-06T02:18:15;8.30;99.90
23120;DHT22;11729;50.836;4.330;2024-01-06T02:20:43;8.30;99.90
23120;DHT22;11729;50.836;4.330;2024-01-06T02:23:09;8.20;99.90
23120;DHT22;11729;50.836;4.330;2024-01-06T02:25:35;8.20;99.90
23120;DHT22;11729;50.836;4.330;2024-01-06T02:28:01;8.10;99.90
23120;DHT22;11729;50.836;4.330;2024-01-06T02:30:26;8.00;99.90
23120;DHT22;11729;50.836;4.330;2024-01-06T02:32:53;8.00;99.90
23120;DHT22;11729;50.836;4.330;2024-01-06T02:35:20;8.20;99.90
23120;DHT22;11729;50.836;4.330;2024-01-06T02:37:46;8.40;99.90
23120;DHT22;11729;50.836;4.330;2024-01-06T02:40:13;8.50;99.90
23120;DHT22;11729;50.836;4.330;2024-01-06T02:42:40;8.30;99.90
23120;DHT22;11729;50.836;4.330;2024-01-06T02:45:07;8.30;99.90
23120;DHT22;11729;50.836;4.330;2024-01-06T02:47:34;8.40;99.90
23120;DHT22;11729;50.836;4.330;2024-01-06T02:50:04;8.30;99.90
23120;DHT22;11729;50.836;4.330;2024-01-06T02:52:30;8.20;99.90
23120;DHT22;11729;50.836;4.330;2024-01-06T02:54:56;8.30;99.90
23120;DHT22;11729;50.836;4.330;2024-01-06T02:57:21;8.40;99.90
23120;DHT22;11729;50.836;4.330;2024-01-06T02:59:47;8.40;99.90
23120;DHT22;11729;50.836;4.330;2024-01-06T03:02:13;8.40;99.90
23120;DHT22;11729;50.836;4.330;2024-01-06T03:04:39;8.20;99.90
23120;DHT22;11729;50.836;4.330;2024-01-06T03:07:04;8.20;99.90
23120;DHT22;11729;50.836;4.330;2024-01-06T03:09:30;8.30;99.90
23120;DHT22;11729;50.836;4.330;2024-01-06T03:11:57;8.40;99.90
23120;DHT22;11729;50.836;4.330;2024-01-06T03:14:22;8.40;99.90
23120;DHT22;11729;50.836;4.330;2024-01-06T03:16:48;8.50;99.90
23120;DHT22;11729;50.836;4.330;2024-01-06T03:19:13;8.50;99.90
23120;DHT22;11729;50.836;4.330;2024-01-06T03:21:39;8.50;99.90
23120;DHT22;11729;50.836;4.330;2024-01-06T03:24:06;8.60;99.90
23120;DHT22;11729;50.836;4.330;2024-01-06T03:26:32;8.60;99.90
23120;DHT22;11729;50.836;4.330;2024-01-06T03:28:59;8.60;99.90
23120;DHT22;11729;50.836;4.330;2024-01-06T03:31:24;8.60;99.90
23120;DHT22;11729;50.836;4.330;2024-01-06T03:33:50;8.70;99.90
23120;DHT22;11729;50.836;4.330;2024-01-06T03:36:19;8.90;99.90
23120;DHT22;11729;50.836;4.330;2024-01-06T03:38:44;8.90;99.90
23120;DHT22;11729;50.836;4.330;2024-01-06T03:41:11;8.90;99.90
23120;DHT22;11729;50.836;4.330;2024-01-06T03:43:37;8.60;99.90
23120;DHT22;11729;50.836;4.330;2024-01-06T03:46:04;8.40;99.90
23120;DHT22;11729;50.836;4.330;2024-01-06T03:48:30;8.40;99.90
23120;DHT22;11729;50.836;4.330;2024-01-06T03:50:59;8.40;99.90
23120;DHT22;11729;50.836;4.330;2024-01-06T03:53:24;8.50;99.90
23120;DHT22;11729;50.836;4.330;2024-01-06T03:55:50;8.40;99.90
23120;DHT22;11729;50.836;4.330;2024-01-06T03:58:16;8.40;99.90
23120;DHT22;11729;50.836;4.330;2024-01-06T04:00:41;8.50;99.90
23120;DHT22;11729;50.836;4.330;2024-01-06T04:03:07;8.70;99.90
23120;DHT22;11729;50.836;4.330;2024-01-06T04:05:34;8.60;99.90
23120;DHT22;11729;50.836;4.330;2024-01-06T04:08:00;8.70;99.90
23120;DHT22;11729;50.836;4.330;2024-01-06T04:10:25;9.00;99.90
23120;DHT22;11729;50.836;4.330;2024-01-06T04:12:52;8.90;99.90
23120;DHT22;11729;50.836;4.330;2024-01-06T04:15:19;8.60;99.90
23120;DHT22;11729;50.836;4.330;2024-01-06T04:17:48;8.60;99.90
23120;DHT22;11729;50.836;4.330;2024-01-06T04:20:15;8.70;99.90
23120;DHT22;11729;50.836;4.330;2024-01-06T04:22:40;8.80;99.90
23120;DHT22;11729;50.836;4.330;2024-01-06T04:25:06;8.90;99.90
23120;DHT22;11729;50.836;4.330;2024-01-06T04:27:32;8.90;99.90
23120;DHT22;11729;50.836;4.330;2024-01-06T04:29:59;9.00;99.90
23120;DHT22;11729;50.836;4.330;2024-01-06T04:32:25;8.90;99.90
23120;DHT22;11729;50.836;4.330;2024-01-06T04:34:51;8.70;99.90
23120;DHT22;11729;50.836;4.330;2024-01-06T04:37:17;8.50;99.90
23120;DHT22;11729;50.836;4.330;2024-01-06T04:39:43;8.40;99.90
23120;DHT22;11729;50.836;4.330;2024-01-06T04:42:09;8.50;99.90
23120;DHT22;11729;50.836;4.330;2024-01-06T04:44:35;8.60;99.90
23120;DHT22;11729;50.836;4.330;2024-01-06T04:47:02;8.60;99.90
23120;DHT22;11729;50.836;4.330;2024-01-06T04:49:28;8.30;99.90
23120;DHT22;11729;50.836;4.330;2024-01-06T04:51:53;8.40;99.90
23120;DHT22;11729;50.836;4.330;2024-01-06T04:54:19;8.40;99.90
23120;DHT22;11729;50.836;4.330;2024-01-06T04:56:44;8.50;99.90
23120;DHT22;11729;50.836;4.330;2024-01-06T04:59:10;8.50;99.90
23120;DHT22;11729;50.836;4.330;2024-01-06T05:01:36;8.70;99.90
23120;DHT22;11729;50.836;4.330;2024-01-06T05:04:01;8.60;99.90
23120;DHT22;11729;50.836;4.330;2024-01-06T05:06:28;8.50;99.90
23120;DHT22;11729;50.836;4.330;2024-01-06T05:08:54;8.40;99.90
23120;DHT22;11729;50.836;4.330;2024-01-06T05:11:19;8.50;99.90
23120;DHT22;11729;50.836;4.330;2024-01-06T05:13:45;8.40;99.90
23120;DHT22;11729;50.836;4.330;2024-01-06T05:16:11;8.50;99.90
23120;DHT22;11729;50.836;4.330;2024-01-06T05:18:36;8.50;99.90
23120;DHT22;11729;50.836;4.330;2024-01-06T05:21:03;8.60;99.90
23120;DHT22;11729;50.836;4.330;2024-01-06T05:23:29;8.50;99.90
23120;DHT22;11729;50.836;4.330;2024-01-06T05:25:55;8.30;99.90
23120;DHT22;11729;50.836;4.330;2024-01-06T05:28:21;8.40;99.90
23120;DHT22;11729;50.836;4.330;2024-01-06T05:30:47;8.30;99.90
23120;DHT22;11729;50.836;4.330;2024-01-06T05:33:12;8.40;99.90
23120;DHT22;11729;50.836;4.330;2024-01-06T05:35:39;8.30;99.90
23120;DHT22;11729;50.836;4.330;2024-01-06T05:38:04;8.50;99.90
23120;DHT22;11729;50.836;4.330;2024-01-06T05:40:31;8.50;99.90
23120;DHT22;11729;50.836;4.330;2024-01-06T05:42:57;8.50;99.90
23120;DHT22;11729;50.836;4.330;2024-01-06T05:45:23;8.50;99.90
23120;DHT22;11729;50.836;4.330;2024-01-06T05:47:50;8.60;99.90
23120;DHT22;11729;50.836;4.330;2024-01-06T05:50:16;8.40;99.90
23120;DHT22;11729;50.836;4.330;2024-01-06T05:52:43;8.50;99.90
23120;DHT22;11729;50.836;4.330;2024-01-06T05:55:09;8.60;99.90
23120;DHT22;11729;50.836;4.330;2024-01-06T05:57:35;8.60;99.90
23120;DHT22;11729;50.836;4.330;2024-01-06T06:00:00;8.60;99.90
23120;DHT22;11729;50.836;4.330;2024-01-06T06:02:26;8.40;99.90
23120;DHT22;11729;50.836;4.330;2024-01-06T06:04:53;8.30;99.90
23120;DHT22;11729;50.836;4.330;2024-01-06T06:07:19;8.20;99.90
23120;DHT22;11729;50.836;4.330;2024-01-06T06:09:45;8.30;99.90
23120;DHT22;11729;50.836;4.330;2024-01-06T06:12:13;8.20;99.90
23120;DHT22;11729;50.836;4.330;2024-01-06T06:14:40;8.30;99.90
23120;DHT22;11729;50.836;4.330;2024-01-06T06:17:07;8.10;99.90
23120;DHT22;11729;50.836;4.330;2024-01-06T06:19:32;7.90;99.90
23120;DHT22;11729;50.836;4.330;2024-01-06T06:21:58;7.90;99.90
23120;DHT22;11729;50.836;4.330;2024-01-06T06:24:25;8.10;99.90
23120;DHT22;11729;50.836;4.330;2024-01-06T06:26:50;8.10;99.90
23120;DHT22;11729;50.836;4.330;2024-01-06T06:29:16;8.20;99.90
23120;DHT22;11729;50.836;4.330;2024-01-06T06:31:41;8.00;99.90
23120;DHT22;11729;50.836;4.330;2024-01-06T06:34:10;8.00;99.90
23120;DHT22;11729;50.836;4.330;2024-01-06T06:36:38;8.10;99.90
23120;DHT22;11729;50.836;4.330;2024-01-06T06:39:04;8.10;99.90
23120;DHT22;11729;50.836;4.330;2024-01-06T06:41:30;8.00;99.90
23120;DHT22;11729;50.836;4.330;2024-01-06T06:43:57;7.90;99.90
23120;DHT22;11729;50.836;4.330;2024-01-06T06:46:23;7.90;99.90
23120;DHT22;11729;50.836;4.330;2024-01-06T06:48:49;7.80;99.90
23120;DHT22;11729;50.836;4.330;2024-01-06T06:51:16;7.90;99.90
23120;DHT22;11729;50.836;4.330;2024-01-06T06:53:41;7.90;99.90
23120;DHT22;11729;50.836;4.330;2024-01-06T06:56:07;8.10;99.90
23120;DHT22;11729;50.836;4.330;2024-01-06T06:58:34;8.10;99.90
23120;DHT22;11729;50.836;4.330;2024-01-06T07:01:01;7.90;99.90
23120;DHT22;11729;50.836;4.330;2024-01-06T07:03:26;7.80;99.90
23120;DHT22;11729;50.836;4.330;2024-01-06T07:05:52;7.80;99.90
23120;DHT22;11729;50.836;4.330;2024-01-06T07:08:19;7.90;99.90
23120;DHT22;11729;50.836;4.330;2024-01-06T07:10:45;8.10;99.90
23120;DHT22;11729;50.836;4.330;2024-01-06T07:13:11;7.90;99.90
23120;DHT22;11729;50.836;4.330;2024-01-06T07:15:37;7.60;99.90
23120;DHT22;11729;50.836;4.330;2024-01-06T07:18:02;7.40;99.90
23120;DHT22;11729;50.836;4.330;2024-01-06T07:20:28;7.40;99.90
23120;DHT22;11729;50.836;4.330;2024-01-06T07:22:54;7.50;99.90
23120;DHT22;11729;50.836;4.330;2024-01-06T07:25:19;7.60;99.90
23120;DHT22;11729;50.836;4.330;2024-01-06T07:27:45;7.70;99.90
23120;DHT22;11729;50.836;4.330;2024-01-06T07:30:11;7.80;99.90
23120;DHT22;11729;50.836;4.330;2024-01-06T07:32:37;7.70;99.90
23120;DHT22;11729;50.836;4.330;2024-01-06T07:35:02;7.50;99.90
23120;DHT22;11729;50.836;4.330;2024-01-06T07:37:28;7.50;99.90
23120;DHT22;11729;50.836;4.330;2024-01-06T07:39:54;7.50;99.90
23120;DHT22;11729;50.836;4.330;2024-01-06T07:42:19;7.60;99.90
23120;DHT22;11729;50.836;4.330;2024-01-06T07:44:46;7.70;99.90
23120;DHT22;11729;50.836;4.330;2024-01-06T07:47:11;7.70;99.90
23120;DHT22;11729;50.836;4.330;2024-01-06T07:49:37;7.60;99.90
23120;DHT22;11729;50.836;4.330;2024-01-06T07:52:03;7.60;99.90
23120;DHT22;11729;50.836;4.330;2024-01-06T07:54:32;7.50;99.90
23120;DHT22;11729;50.836;4.330;2024-01-06T07:56:57;7.60;99.90
23120;DHT22;11729;50.836;4.330;2024-01-06T07:59:23;7.50;99.90
23120;DHT22;11729;50.836;4.330;2024-01-06T08:01:49;7.40;99.90
23120;DHT22;11729;50.836;4.330;2024-01-06T08:04:15;7.40;99.90
23120;DHT22;11729;50.836;4.330;2024-01-06T08:06:40;7.30;99.90
23120;DHT22;11729;50.836;4.330;2024-01-06T08:09:06;7.40;99.90
23120;DHT22;11729;50.836;4.330;2024-01-06T08:11:31;7.60;99.90
23120;DHT22;11729;50.836;4.330;2024-01-06T08:13:59;7.60;99.90
23120;DHT22;11729;50.836;4.330;2024-01-06T08:16:25;7.60;99.90
23120;DHT22;11729;50.836;4.330;2024-01-06T08:18:51;7.60;99.90
23120;DHT22;11729;50.836;4.330;2024-01-06T08:21:16;7.70;99.90
23120;DHT22;11729;50.836;4.330;2024-01-06T08:23:42;7.80;99.90
23120;DHT22;11729;50.836;4.330;2024-01-06T08:26:08;7.70;99.90
23120;DHT22;11729;50.836;4.330;2024-01-06T08:28:34;7.80;99.90
23120;DHT22;11729;50.836;4.330;2024-01-06T08:31:02;7.90;99.90
23120;DHT22;11729;50.836;4.330;2024-01-06T08:33:29;8.00;99.90
23120;DHT22;11729;50.836;4.330;2024-01-06T08:35:55;8.10;99.90
23120;DHT22;11729;50.836;4.330;2024-01-06T08:38:21;8.00;99.90
23120;DHT22;11729;50.836;4.330;2024-01-06T08:40:47;7.70;99.90
23120;DHT22;11729;50.836;4.330;2024-01-06T08:43:15;7.50;99.90
23120;DHT22;11729;50.836;4.330;2024-01-06T08:45:42;7.30;99.90
23120;DHT22;11729;50.836;4.330;2024-01-06T08:48:08;7.30;99.90
23120;DHT22;11729;50.836;4.330;2024-01-06T08:50:33;7.40;99.90
23120;DHT22;11729;50.836;4.330;2024-01-06T08:52:59;7.50;99.90
23120;DHT22;11729;50.836;4.330;2024-01-06T08:55:26;7.50;99.90
23120;DHT22;11729;50.836;4.330;2024-01-06T08:57:51;7.40;99.90
23120;DHT22;11729;50.836;4.330;2024-01-06T09:00:17;7.40;99.90
23120;DHT22;11729;50.836;4.330;2024-01-06T09:02:45;7.50;99.90
23120;DHT22;11729;50.836;4.330;2024-01-06T09:05:10;7.50;99.90
23120;DHT22;11729;50.836;4.330;2024-01-06T09:07:36;7.30;99.90
23120;DHT22;11729;50.836;4.330;2024-01-06T09:10:01;7.00;99.90
23120;DHT22;11729;50.836;4.330;2024-01-06T09:12:27;7.10;99.90
23120;DHT22;11729;50.836;4.330;2024-01-06T09:14:53;7.20;99.90
23120;DHT22;11729;50.836;4.330;2024-01-06T09:17:18;7.20;99.90
23120;DHT22;11729;50.836;4.330;2024-01-06T09:19:44;7.20;99.90
23120;DHT22;11729;50.836;4.330;2024-01-06T09:22:10;7.20;99.90
23120;DHT22;11729;50.836;4.330;2024-01-06T09:24:35;7.30;99.90
23120;DHT22;11729;50.836;4.330;2024-01-06T09:27:03;7.10;99.90
23120;DHT22;11729;50.836;4.330;2024-01-06T09:29:29;7.00;99.90
23120;DHT22;11729;50.836;4.330;2024-01-06T09:31:54;7.00;99.90
23120;DHT22;11729;50.836;4.330;2024-01-06T09:34:22;7.00;99.90
23120;DHT22;11729;50.836;4.330;2024-01-06T09:36:48;7.20;99.90
23120;DHT22;11729;50.836;4.330;2024-01-06T09:39:13;7.30;99.90
23120;DHT22;11729;50.836;4.330;2024-01-06T09:41:40;7.30;99.90
23120;DHT22;11729;50.836;4.330;2024-01-06T09:44:08;7.30;99.90
23120;DHT22;11729;50.836;4.330;2024-01-06T09:46:34;7.30;99.90
23120;DHT22;11729;50.836;4.330;2024-01-06T09:49:02;7.30;99.90
23120;DHT22;11729;50.836;4.330;2024-01-06T09:51:28;7.40;99.90
23120;DHT22;11729;50.836;4.330;2024-01-06T09:54:01;7.40;99.90
23120;DHT22;11729;50.836;4.330;2024-01-06T09:56:29;7.40;99.90
23120;DHT22;11729;50.836;4.330;2024-01-06T09:58:56;7.30;99.90
23120;DHT22;11729;50.836;4.330;2024-01-06T10:01:22;6.90;99.90
23120;DHT22;11729;50.836;4.330;2024-01-06T10:03:48;7.00;99.90
23120;DHT22;11729;50.836;4.330;2024-01-06T10:06:14;7.00;99.90
23120;DHT22;11729;50.836;4.330;2024-01-06T10:08:52;7.20;99.90
23120;DHT22;11729;50.836;4.330;2024-01-06T10:11:19;7.30;99.90
23120;DHT22;11729;50.836;4.330;2024-01-06T10:13:51;7.20;99.90
23120;DHT22;11729;50.836;4.330;2024-01-06T10:16:17;7.30;99.90
23120;DHT22;11729;50.836;4.330;2024-01-06T10:18:44;7.30;99.90
23120;DHT22;11729;50.836;4.330;2024-01-06T10:21:10;7.30;99.90
23120;DHT22;11729;50.836;4.330;2024-01-06T10:23:36;7.20;99.90
23120;DHT22;11729;50.836;4.330;2024-01-06T10:26:02;6.90;99.90
23120;DHT22;11729;50.836;4.330;2024-01-06T10:28:28;6.90;99.90
23120;DHT22;11729;50.836;4.330;2024-01-06T10:30:57;7.10;99.90
23120;DHT22;11729;50.836;4.330;2024-01-06T10:33:24;7.00;99.90
23120;DHT22;11729;50.836;4.330;2024-01-06T10:35:52;7.10;99.90
23120;DHT22;11729;50.836;4.330;2024-01-06T10:38:19;7.20;99.90
23120;DHT22;11729;50.836;4.330;2024-01-06T10:40:56;7.00;99.90
23120;DHT22;11729;50.836;4.330;2024-01-06T10:43:26;6.90;99.90
23120;DHT22;11729;50.836;4.330;2024-01-06T10:45:56;6.90;99.90
23120;DHT22;11729;50.836;4.330;2024-01-06T10:48:24;7.00;99.90
23120;DHT22;11729;50.836;4.330;2024-01-06T10:50:51;7.00;99.90
23120;DHT22;11729;50.836;4.330;2024-01-06T10:53:20;7.10;99.90
23120;DHT22;11729;50.836;4.330;2024-01-06T10:55:49;7.10;99.90
23120;DHT22;11729;50.836;4.330;2024-01-06T10:58:17;7.00;99.90
23120;DHT22;11729;50.836;4.330;2024-01-06T11:00:44;7.10;99.90
23120;DHT22;11729;50.836;4.330;2024-01-06T11:03:10;7.10;99.90
23120;DHT22;11729;50.836;4.330;2024-01-06T11:05:38;7.10;99.90
23120;DHT22;11729;50.836;4.330;2024-01-06T11:08:05;7.00;99.90
23120;DHT22;11729;50.836;4.330;2024-01-06T11:10:32;7.00;99.90
23120;DHT22;11729;50.836;4.330;2024-01-06T11:13:16;6.90;99.90
23120;DHT22;11729;50.836;4.330;2024-01-06T11:15:48;7.00;99.90
23120;DHT22;11729;50.836;4.330;2024-01-06T11:18:50;7.00;99.90
23120;DHT22;11729;50.836;4.330;2024-01-06T11:21:17;6.70;99.90
23120;DHT22;11729;50.836;4.330;2024-01-06T11:24:18;6.90;99.90
23120;DHT22;11729;50.836;4.330;2024-01-06T11:26:56;7.00;99.90
23120;DHT22;11729;50.836;4.330;2024-01-06T11:29:23;6.90;99.90
23120;DHT22;11729;50.836;4.330;2024-01-06T11:32:25;6.60;99.90
23120;DHT22;11729;50.836;4.330;2024-01-06T11:34:52;6.80;99.90
23120;DHT22;11729;50.836;4.330;2024-01-06T11:43:06;6.60;99.90
23120;DHT22;11729;50.836;4.330;2024-01-06T11:45:34;6.80;99.90
23120;DHT22;11729;50.836;4.330;2024-01-06T11:48:02;6.80;99.90
23120;DHT22;11729;50.836;4.330;2024-01-06T11:50:34;6.70;99.90
23120;DHT22;11729;50.836;4.330;2024-01-06T11:53:01;6.70;99.90
23120;DHT22;11729;50.836;4.330;2024-01-06T11:55:27;6.80;99.90
23120;DHT22;11729;50.836;4.330;2024-01-06T11:58:00;6.80;99.90
23120;DHT22;11729;50.836;4.330;2024-01-06T12:00:31;6.90;99.90
23120;DHT22;11729;50.836;4.330;2024-01-06T12:02:58;6.80;99.90
23120;DHT22;11729;50.836;4.330;2024-01-06T12:05:25;6.60;99.90
23120;DHT22;11729;50.836;4.330;2024-01-06T12:07:57;6.80;99.90
23120;DHT22;11729;50.836;4.330;2024-01-06T12:10:24;7.00;99.90
23120;DHT22;11729;50.836;4.330;2024-01-06T12:13:03;6.80;99.90
23120;DHT22;11729;50.836;4.330;2024-01-06T12:15:29;6.80;99.90
23120;DHT22;11729;50.836;4.330;2024-01-06T12:17:55;6.70;99.90
23120;DHT22;11729;50.836;4.330;2024-01-06T12:20:23;6.80;99.90
23120;DHT22;11729;50.836;4.330;2024-01-06T12:22:53;6.90;99.90
23120;DHT22;11729;50.836;4.330;2024-01-06T12:25:23;6.90;99.90
23120;DHT22;11729;50.836;4.330;2024-01-06T12:27:49;6.60;99.90
23120;DHT22;11729;50.836;4.330;2024-01-06T12:30:16;6.50;99.90
23120;DHT22;11729;50.836;4.330;2024-01-06T12:32:48;6.60;99.90
23120;DHT22;11729;50.836;4.330;2024-01-06T12:35:17;7.00;99.90
23120;DHT22;11729;50.836;4.330;2024-01-06T12:37:43;6.60;99.90
23120;DHT22;11729;50.836;4.330;2024-01-06T12:40:12;6.50;99.90
23120;DHT22;11729;50.836;4.330;2024-01-06T12:42:38;6.70;99.90
23120;DHT22;11729;50.836;4.330;2024-01-06T12:45:06;6.80;99.90
23120;DHT22;11729;50.836;4.330;2024-01-06T12:47:33;6.60;99.90
23120;DHT22;11729;50.836;4.330;2024-01-06T12:49:58;6.70;99.90
23120;DHT22;11729;50.836;4.330;2024-01-06T12:52:25;6.70;99.90
23120;DHT22;11729;50.836;4.330;2024-01-06T12:54:51;6.80;99.90
23120;DHT22;11729;50.836;4.330;2024-01-06T12:57:19;7.00;99.90
23120;DHT22;11729;50.836;4.330;2024-01-06T12:59:44;6.90;99.90
23120;DHT22;11729;50.836;4.330;2024-01-06T13:02:10;6.90;99.90
23120;DHT22;11729;50.836;4.330;2024-01-06T13:04:37;6.80;99.90
23120;DHT22;11729;50.836;4.330;2024-01-06T13:07:03;7.00;99.90
23120;DHT22;11729;50.836;4.330;2024-01-06T13:09:28;7.30;99.90
23120;DHT22;11729;50.836;4.330;2024-01-06T13:11:54;7.20;99.90
23120;DHT22;11729;50.836;4.330;2024-01-06T13:14:28;7.20;99.90
23120;DHT22;11729;50.836;4.330;2024-01-06T13:16:55;7.10;99.90
23120;DHT22;11729;50.836;4.330;2024-01-06T13:19:21;7.00;99.90
23120;DHT22;11729;50.836;4.330;2024-01-06T13:21:46;7.10;99.90
23120;DHT22;11729;50.836;4.330;2024-01-06T13:24:12;7.00;99.90
23120;DHT22;11729;50.836;4.330;2024-01-06T13:26:38;7.20;99.90
23120;DHT22;11729;50.836;4.330;2024-01-06T13:29:04;7.00;99.90
23120;DHT22;11729;50.836;4.330;2024-01-06T13:31:30;7.10;99.90
23120;DHT22;11729;50.836;4.330;2024-01-06T13:33:56;7.00;99.90
23120;DHT22;11729;50.836;4.330;2024-01-06T13:36:23;7.10;99.90
23120;DHT22;11729;50.836;4.330;2024-01-06T13:38:51;7.00;99.90
23120;DHT22;11729;50.836;4.330;2024-01-06T13:41:16;7.20;99.90
23120;DHT22;11729;50.836;4.330;2024-01-06T13:43:42;7.20;99.90
23120;DHT22;11729;50.836;4.330;2024-01-06T13:46:09;7.20;99.90
23120;DHT22;11729;50.836;4.330;2024-01-06T13:48:37;7.10;99.90
23120;DHT22;11729;50.836;4.330;2024-01-06T13:51:03;6.90;99.90
23120;DHT22;11729;50.836;4.330;2024-01-06T13:53:28;6.70;99.90
23120;DHT22;11729;50.836;4.330;2024-01-06T13:55:55;6.70;99.90
23120;DHT22;11729;50.836;4.330;2024-01-06T13:58:22;7.00;99.90
23120;DHT22;11729;50.836;4.330;2024-01-06T14:00:47;7.10;99.90
23120;DHT22;11729;50.836;4.330;2024-01-06T14:03:14;7.20;99.90
23120;DHT22;11729;50.836;4.330;2024-01-06T14:05:41;7.40;99.90
23120;DHT22;11729;50.836;4.330;2024-01-06T14:08:07;7.40;99.90
23120;DHT22;11729;50.836;4.330;2024-01-06T14:10:32;7.40;99.90
23120;DHT22;11729;50.836;4.330;2024-01-06T14:12:58;7.30;99.90
23120;DHT22;11729;50.836;4.330;2024-01-06T14:15:24;7.00;99.90
23120;DHT22;11729;50.836;4.330;2024-01-06T14:17:52;7.20;99.90
23120;DHT22;11729;50.836;4.330;2024-01-06T14:20:17;7.00;99.90
23120;DHT22;11729;50.836;4.330;2024-01-06T14:22:47;7.00;99.90
23120;DHT22;11729;50.836;4.330;2024-01-06T14:25:14;6.80;99.90
23120;DHT22;11729;50.836;4.330;2024-01-06T14:27:40;6.80;99.90
23120;DHT22;11729;50.836;4.330;2024-01-06T14:30:06;7.00;99.90
23120;DHT22;11729;50.836;4.330;2024-01-06T14:32:35;7.10;99.90
23120;DHT22;11729;50.836;4.330;2024-01-06T14:35:05;7.30;99.90
23120;DHT22;11729;50.836;4.330;2024-01-06T14:37:32;6.90;99.90
23120;DHT22;11729;50.836;4.330;2024-01-06T14:39:57;6.90;99.90
23120;DHT22;11729;50.836;4.330;2024-01-06T14:42:23;7.10;99.90
23120;DHT22;11729;50.836;4.330;2024-01-06T14:44:49;7.20;99.90
23120;DHT22;11729;50.836;4.330;2024-01-06T14:47:14;7.10;99.90
23120;DHT22;11729;50.836;4.330;2024-01-06T14:49:40;6.90;99.90
23120;DHT22;11729;50.836;4.330;2024-01-06T14:52:06;6.90;99.90
23120;DHT22;11729;50.836;4.330;2024-01-06T14:54:32;7.00;99.90
23120;DHT22;11729;50.836;4.330;2024-01-06T14:56:58;7.10;99.90
23120;DHT22;11729;50.836;4.330;2024-01-06T14:59:25;7.10;99.90
23120;DHT22;11729;50.836;4.330;2024-01-06T15:01:50;7.00;99.90
23120;DHT22;11729;50.836;4.330;2024-01-06T15:04:16;6.90;99.90
23120;DHT22;11729;50.836;4.330;2024-01-06T15:06:44;6.80;99.90
23120;DHT22;11729;50.836;4.330;2024-01-06T15:09:09;6.60;99.90
23120;DHT22;11729;50.836;4.330;2024-01-06T15:11:35;6.70;99.90
23120;DHT22;11729;50.836;4.330;2024-01-06T15:14:02;6.60;99.90
23120;DHT22;11729;50.836;4.330;2024-01-06T15:16:33;6.40;99.90
23120;DHT22;11729;50.836;4.330;2024-01-06T15:18:59;6.50;99.90
23120;DHT22;11729;50.836;4.330;2024-01-06T15:21:25;6.70;99.90
23120;DHT22;11729;50.836;4.330;2024-01-06T15:23:54;6.80;99.90
23120;DHT22;11729;50.836;4.330;2024-01-06T15:26:27;6.90;99.90
23120;DHT22;11729;50.836;4.330;2024-01-06T15:28:53;6.80;99.90
23120;DHT22;11729;50.836;4.330;2024-01-06T15:31:19;6.80;99.90
23120;DHT22;11729;50.836;4.330;2024-01-06T15:33:44;6.80;99.90
23120;DHT22;11729;50.836;4.330;2024-01-06T15:36:13;7.00;99.90
23120;DHT22;11729;50.836;4.330;2024-01-06T15:38:40;6.90;99.90
23120;DHT22;11729;50.836;4.330;2024-01-06T15:41:07;6.70;99.90
23120;DHT22;11729;50.836;4.330;2024-01-06T15:43:35;6.70;99.90
23120;DHT22;11729;50.836;4.330;2024-01-06T15:46:03;6.90;99.90
23120;DHT22;11729;50.836;4.330;2024-01-06T15:48:28;7.00;99.90